createdAt,value
2018-07-24T00:02:25.597Z,101053.00
2018-07-24T00:07:18.822Z,101051.00
2018-07-24T00:12:12.112Z,101058.00
2018-07-24T00:17:05.395Z,101052.00
2018-07-24T00:21:58.716Z,101052.00
2018-07-24T00:26:51.845Z,101061.00
2018-07-24T00:31:45.082Z,101054.00
2018-07-24T00:36:38.336Z,101051.00
2018-07-24T00:41:31.497Z,101047.00
2018-07-24T00:46:24.682Z,101050.00
2018-07-24T00:51:17.807Z,101041.00
2018-07-24T00:56:10.994Z,101037.00
2018-07-24T01:01:04.213Z,101039.00
2018-07-24T01:05:57.357Z,101037.00
2018-07-24T01:10:50.596Z,101040.00
2018-07-24T01:15:43.818Z,101031.00
2018-07-24T01:20:37.208Z,101031.00
2018-07-24T01:25:30.667Z,101034.00
2018-07-24T01:30:23.899Z,101030.00
2018-07-24T01:35:17.132Z,101029.00
2018-07-24T01:40:10.265Z,101023.00
2018-07-24T01:45:03.801Z,101021.00
2018-07-24T01:49:57.014Z,101020.00
2018-07-24T01:54:50.247Z,101021.00
2018-07-24T01:59:43.434Z,101018.00
2018-07-24T02:04:36.693Z,101018.00
2018-07-24T02:09:29.893Z,101018.00
2018-07-24T02:14:23.194Z,101016.00
2018-07-24T02:19:16.400Z,101015.00
2018-07-24T02:24:09.496Z,101012.00
2018-07-24T02:29:02.823Z,101009.00
2018-07-24T02:33:56.025Z,101013.00
2018-07-24T02:38:49.165Z,101010.00
2018-07-24T02:43:42.376Z,101006.00
2018-07-24T02:48:35.505Z,101009.00
2018-07-24T02:53:28.734Z,101008.00
2018-07-24T02:58:21.972Z,101015.00
2018-07-24T03:03:15.303Z,101013.00
2018-07-24T03:08:08.531Z,101013.00
2018-07-24T03:13:01.696Z,101009.00
2018-07-24T03:17:54.943Z,101009.00
2018-07-24T03:22:48.163Z,101006.00
2018-07-24T03:27:41.276Z,101008.00
2018-07-24T03:32:35.417Z,101004.00
2018-07-24T03:37:28.550Z,101004.00
2018-07-24T03:42:21.794Z,101007.00
2018-07-24T03:47:15.097Z,101005.00
2018-07-24T03:52:09.130Z,101010.00
2018-07-24T03:57:02.359Z,101012.00
2018-07-24T04:01:56.433Z,101014.00
2018-07-24T04:06:49.671Z,101021.00
2018-07-24T04:11:42.878Z,101019.00
2018-07-24T04:16:37.382Z,101020.00
2018-07-24T04:21:30.701Z,101017.00
2018-07-24T04:26:23.909Z,101015.00
2018-07-24T04:31:17.053Z,101009.00
2018-07-24T04:36:10.319Z,101008.00
2018-07-24T04:41:03.958Z,101004.00
2018-07-24T04:45:57.322Z,101004.00
2018-07-24T04:50:50.462Z,101004.00
2018-07-24T04:55:43.672Z,101008.00
2018-07-24T05:00:36.945Z,101008.00
2018-07-24T05:05:30.179Z,101011.00
2018-07-24T05:10:23.470Z,101000.00
2018-07-24T05:15:16.809Z,100998.00
2018-07-24T05:20:10.289Z,101003.00
2018-07-24T05:25:03.742Z,100999.00
2018-07-24T05:29:56.973Z,100998.00
2018-07-24T05:34:50.159Z,100996.00
2018-07-24T05:39:43.872Z,100996.00
2018-07-24T05:44:37.073Z,100990.00
2018-07-24T05:49:30.307Z,100990.00
2018-07-24T05:54:23.456Z,100988.00
2018-07-24T05:59:16.682Z,100990.00
2018-07-24T06:04:10.268Z,100986.00
2018-07-24T06:09:05.290Z,100984.00
2018-07-24T06:13:58.499Z,100981.00
2018-07-24T06:18:51.715Z,100984.00
2018-07-24T06:23:45.184Z,100982.00
2018-07-24T06:28:38.573Z,100978.00
2018-07-24T06:33:31.951Z,100981.00
2018-07-24T06:38:25.187Z,100978.00
2018-07-24T06:43:18.416Z,100986.00
2018-07-24T06:48:11.853Z,100991.00
2018-07-24T06:53:05.052Z,100990.00
2018-07-24T06:57:58.457Z,100983.00
2018-07-24T07:02:51.674Z,100977.00
2018-07-24T07:07:44.854Z,100978.00
2018-07-24T07:12:38.871Z,100964.00
2018-07-24T07:17:36.225Z,100966.00
2018-07-24T07:22:29.531Z,100970.00
2018-07-24T07:27:22.739Z,100958.00
2018-07-24T07:32:16.146Z,100969.00
2018-07-24T07:37:09.425Z,100955.00
2018-07-24T07:42:02.719Z,100954.00
2018-07-24T07:46:55.957Z,100952.00
2018-07-24T07:51:49.205Z,100946.00
2018-07-24T07:56:42.491Z,100947.00
2018-07-24T08:01:35.740Z,100936.00
2018-07-24T08:06:28.975Z,100933.00
2018-07-24T08:11:22.211Z,100933.00
2018-07-24T08:16:15.385Z,100934.00
2018-07-24T08:21:08.682Z,100934.00
2018-07-24T08:26:02.024Z,100929.00
2018-07-24T08:30:55.344Z,100931.00
2018-07-24T08:35:48.486Z,100917.00
2018-07-24T08:40:41.755Z,100923.00
2018-07-24T08:45:34.984Z,100922.00
2018-07-24T08:50:28.199Z,100919.00
2018-07-24T08:55:21.833Z,100911.00
2018-07-24T09:00:14.645Z,100913.00
2018-07-24T09:05:07.911Z,100906.00
2018-07-24T09:10:01.196Z,100907.00
2018-07-24T09:14:54.448Z,100909.00
2018-07-24T09:19:47.672Z,100911.00
2018-07-24T09:24:40.857Z,100905.00
2018-07-24T09:29:34.224Z,100920.00
2018-07-24T09:34:27.443Z,100903.00
2018-07-24T09:39:20.708Z,100904.00
2018-07-24T09:44:13.959Z,100899.00
2018-07-24T09:49:07.090Z,100902.00
2018-07-24T09:54:00.417Z,100893.00
2018-07-24T09:58:53.646Z,100896.00
2018-07-24T10:03:46.845Z,100880.00
2018-07-24T10:08:39.976Z,100874.00
2018-07-24T10:13:33.174Z,100876.00
2018-07-24T10:18:26.397Z,100870.00
2018-07-24T10:23:19.680Z,100863.00
2018-07-24T10:28:13.069Z,100876.00
2018-07-24T10:33:06.916Z,100864.00
2018-07-24T10:38:00.036Z,100852.00
2018-07-24T10:42:53.255Z,100847.00
2018-07-24T10:47:46.500Z,100852.00
2018-07-24T10:52:39.753Z,100844.00
2018-07-24T10:57:35.787Z,100840.00
2018-07-24T11:02:30.990Z,100839.00
2018-07-24T11:07:24.299Z,100839.00
2018-07-24T11:12:17.581Z,100835.00
2018-07-24T11:17:10.822Z,100829.00
2018-07-24T11:22:04.181Z,100829.00
2018-07-24T11:26:57.360Z,100823.00
2018-07-24T11:31:50.613Z,100824.00
2018-07-24T11:36:43.773Z,100810.00
2018-07-24T11:41:37.003Z,100819.00
2018-07-24T11:46:30.284Z,100814.00
2018-07-24T11:51:23.538Z,100810.00
2018-07-24T11:56:16.749Z,100803.00
2018-07-24T12:01:10.024Z,100800.00
2018-07-24T12:06:06.956Z,100794.00
2018-07-24T12:11:03.202Z,100787.00
2018-07-24T12:15:59.668Z,100784.00
2018-07-24T12:20:56.788Z,100781.00
2018-07-24T12:25:52.793Z,100779.00
2018-07-24T12:30:49.177Z,100777.00
2018-07-24T12:35:44.952Z,100778.00
2018-07-24T12:40:43.099Z,100771.00
2018-07-24T12:45:36.321Z,100765.00
2018-07-24T12:50:29.588Z,100763.00
2018-07-24T12:55:22.877Z,100760.00
2018-07-24T13:00:16.194Z,100752.00
2018-07-24T13:05:09.375Z,100746.00
2018-07-24T13:10:02.617Z,100737.00
2018-07-24T13:14:55.847Z,100737.00
2018-07-24T13:19:49.075Z,100725.00
2018-07-24T13:24:42.498Z,100728.00
2018-07-24T13:29:35.712Z,100718.00
2018-07-24T13:34:28.919Z,100723.00
2018-07-24T13:39:22.191Z,100723.00
2018-07-24T13:44:16.522Z,100723.00
2018-07-24T13:49:09.787Z,100715.00
2018-07-24T13:54:03.035Z,100717.00
2018-07-24T13:58:56.223Z,100712.00
2018-07-24T14:03:49.403Z,100712.00
2018-07-24T14:08:42.625Z,100712.00
2018-07-24T14:13:35.835Z,100698.00
2018-07-24T14:18:28.970Z,100699.00
2018-07-24T14:23:22.267Z,100689.00
2018-07-24T14:28:15.604Z,100685.00
2018-07-24T14:33:09.274Z,100679.00
2018-07-24T14:38:02.599Z,100677.00
2018-07-24T14:42:56.490Z,100678.00
2018-07-24T14:47:49.718Z,100669.00
2018-07-24T14:52:42.975Z,100670.00
2018-07-24T14:57:36.171Z,100676.00
2018-07-24T15:02:29.401Z,100676.00
2018-07-24T15:07:22.522Z,100664.00
2018-07-24T15:12:15.713Z,100658.00
2018-07-24T15:17:09.027Z,100662.00
2018-07-24T15:22:02.161Z,100657.00
2018-07-24T15:26:55.395Z,100659.00
2018-07-24T15:31:48.607Z,100647.00
2018-07-24T15:36:41.787Z,100644.00
2018-07-24T15:41:35.075Z,100644.00
2018-07-24T15:46:28.285Z,100644.00
2018-07-24T15:51:21.523Z,100645.00
2018-07-24T15:56:14.747Z,100639.00
2018-07-24T16:01:08.016Z,100631.00
2018-07-24T16:06:01.331Z,100628.00
2018-07-24T16:10:54.635Z,100639.00
2018-07-24T16:15:47.830Z,100629.00
2018-07-24T16:20:41.049Z,100634.00
2018-07-24T16:25:34.283Z,100633.00
2018-07-24T16:30:27.486Z,100631.00
2018-07-24T16:35:20.739Z,100632.00
2018-07-24T16:40:14.013Z,100630.00
2018-07-24T16:45:07.253Z,100624.00
2018-07-24T16:50:00.370Z,100623.00
2018-07-24T16:54:53.956Z,100619.00
2018-07-24T16:59:47.216Z,100615.00
2018-07-24T17:04:40.425Z,100609.00
2018-07-24T17:09:33.670Z,100609.00
2018-07-24T17:14:26.909Z,100611.00
2018-07-24T17:19:20.050Z,100604.00
2018-07-24T17:24:13.286Z,100607.00
2018-07-24T17:29:06.851Z,100613.00
2018-07-24T17:34:00.069Z,100609.00
2018-07-24T17:38:53.357Z,100611.00
2018-07-24T17:43:46.858Z,100614.00
2018-07-24T17:48:41.040Z,100616.00
2018-07-24T17:53:34.665Z,100620.00
2018-07-24T17:58:27.937Z,100617.00
2018-07-24T18:03:21.167Z,100618.00
2018-07-24T18:08:14.417Z,100619.00
2018-07-24T18:13:07.615Z,100623.00
2018-07-24T18:18:00.869Z,100629.00
2018-07-24T18:22:54.106Z,100630.00
2018-07-24T18:27:47.511Z,100632.00
2018-07-24T18:32:40.725Z,100629.00
2018-07-24T18:37:33.967Z,100631.00
2018-07-24T18:42:27.188Z,100638.00
2018-07-24T18:47:20.355Z,100642.00
2018-07-24T18:52:13.494Z,100641.00
2018-07-24T18:57:06.762Z,100643.00
2018-07-24T19:02:00.000Z,100650.00
2018-07-24T19:06:53.226Z,100650.00
2018-07-24T19:11:46.440Z,100651.00
2018-07-24T19:16:39.651Z,100651.00
2018-07-24T19:21:32.881Z,100651.00
2018-07-24T19:26:26.031Z,100658.00
2018-07-24T19:31:19.381Z,100660.00
2018-07-24T19:36:12.485Z,100669.00
2018-07-24T19:41:05.717Z,100673.00
2018-07-24T19:45:58.937Z,100679.00
2018-07-24T19:50:52.067Z,100684.00
2018-07-24T19:55:45.275Z,100690.00
2018-07-24T20:00:38.498Z,100687.00
2018-07-24T20:05:31.707Z,100691.00
2018-07-24T20:10:24.933Z,100695.00
2018-07-24T20:15:20.127Z,100701.00
2018-07-24T20:20:13.607Z,100706.00
2018-07-24T20:25:06.720Z,100705.00
2018-07-24T20:29:59.931Z,100712.00
2018-07-24T20:34:53.141Z,100713.00
2018-07-24T20:39:46.404Z,100706.00
2018-07-24T20:44:39.555Z,100713.00
2018-07-24T20:49:32.796Z,100709.00
2018-07-24T20:54:26.032Z,100712.00
2018-07-24T20:59:19.557Z,100710.00
2018-07-24T21:04:12.765Z,100710.00
2018-07-24T21:09:09.631Z,100714.00
2018-07-24T21:14:02.744Z,100713.00
2018-07-24T21:18:55.958Z,100714.00
2018-07-24T21:23:49.182Z,100716.00
2018-07-24T21:28:42.434Z,100715.00
2018-07-24T21:33:35.549Z,100716.00
2018-07-24T21:38:28.854Z,100725.00
2018-07-24T21:43:22.134Z,100731.00
2018-07-24T21:48:15.380Z,100733.00
2018-07-24T21:53:08.733Z,100727.00
2018-07-24T21:58:02.060Z,100722.00
2018-07-24T22:02:55.318Z,100725.00
2018-07-24T22:07:48.456Z,100729.00
2018-07-24T22:12:42.404Z,100731.00
2018-07-24T22:17:35.654Z,100731.00
2018-07-24T22:22:28.927Z,100738.00
2018-07-24T22:27:22.119Z,100743.00
2018-07-24T22:32:15.331Z,100741.00
2018-07-24T22:37:08.501Z,100741.00
2018-07-24T22:42:01.717Z,100741.00
2018-07-24T22:46:54.919Z,100745.00
2018-07-24T22:51:48.258Z,100753.00
2018-07-24T22:56:41.494Z,100754.00
2018-07-24T23:01:34.602Z,100758.00
2018-07-24T23:06:27.795Z,100757.00
2018-07-24T23:11:21.037Z,100759.00
2018-07-24T23:16:14.297Z,100762.00
2018-07-24T23:21:07.757Z,100761.00
2018-07-24T23:26:00.977Z,100755.00
2018-07-24T23:30:54.333Z,100757.00
2018-07-24T23:35:47.553Z,100762.00
2018-07-24T23:40:40.915Z,100763.00
2018-07-24T23:45:34.135Z,100757.00
2018-07-24T23:50:27.453Z,100761.00
2018-07-24T23:55:20.990Z,100756.00
